Latest Coastal Weather Observations for Croker Island Airport

IDD60701

Issued at 12:15 am CST Friday 25 April 2014 (issued every 10 minutes, with the page automatically refreshed every 10 minutes)

About coastal observations | Map of coastal stations | Coastal observations for NT | Marine services | Other Formats
Station Details ID: 014308 Name: CROKER ISLAND AIRPORT Lat: -11.16 Lon: 132.48 Height: 9.2 m
Data from the previous 72 hours. | See also: Recent months for locations in Northern Territory
Date/Time
CST
Temp

°C
Wind Pressure Rain
since 9am
mm
Weather Cloud Vis
km
Sea
Height
m
Swell
Dir
 
Speed
knots
Gust
knots
hPa Trend Height
m
Period
s
Dir
25/12:00am 27.7 WSW 4 6 1007.7 - 0.0 - - - - - - -
 
Date/Time
CST
Temp

°C
Wind Pressure Rain
since 9am
mm
Weather Cloud Vis
km
Sea
Height
m
Swell
Dir
 
Speed
knots
Gust
knots
hPa Trend Height
m
Period
s
Dir
24/11:30pm 27.9 WSW 5 7 1007.8 - 0.0 - - - - - - -
24/11:00pm 27.8 SW 5 6 1008.1 - 0.0 - - - - - - -
24/10:30pm 27.9 WSW 4 6 1008.3 - 0.0 - - - - - - -
24/10:00pm 27.8 WSW 4 6 1008.4 - 0.0 - - - - - - -
24/09:30pm 27.9 WSW 5 6 1008.3 - 0.0 - - - - - - -
24/09:00pm 27.9 WSW 5 6 1008.0 - 0.0 - - - - - - -
24/08:30pm 28.0 WSW 5 7 1007.7 - 0.0 - - - - - - -
24/08:00pm 28.0 WSW 4 6 1007.2 - 0.0 - - - - - - -
24/07:30pm 28.3 WSW 6 8 1006.5 - 0.0 - - - - - - -
24/07:00pm 28.1 SW 5 7 1006.2 - 0.0 - - - - - - -
24/06:30pm 28.2 SW 5 6 1005.9 - 0.0 - - - - - - -
24/06:00pm 28.5 SSW 6 8 1005.3 - 0.0 - - - - - - -
24/05:30pm 28.9 SSW 5 7 1005.0 - 0.0 - - - - - - -
24/05:00pm 29.2 SSW 6 10 1004.9 - 0.0 - - - - - - -
24/04:30pm 29.5 SW 8 11 1004.4 - 0.0 - - - - - - -
24/04:00pm 30.1 WSW 3 5 1004.6 - 0.0 - - - - - - -
24/03:30pm 30.2 W 3 4 1004.6 - 0.0 - - - - - - -
24/03:00pm 30.9 SSW 4 5 1005.1 - 0.0 - - - - - - -
24/02:30pm 30.2 S 4 5 1005.7 - 0.0 - - - - - - -
24/02:00pm 30.9 SSE 4 6 1006.2 - 0.0 - - - - - - -
24/01:30pm 30.8 SSE 5 8 1006.6 - 0.0 - - - - - - -
24/01:00pm 30.3 S 5 8 1006.9 - 0.0 - - - - - - -
24/12:30pm 29.6 SSE 6 9 1007.1 - 0.0 - - - - - - -
24/12:00pm 29.1 S 8 12 1007.2 - 0.0 - - - - - - -
24/11:30am 28.5 SSE 7 10 1007.6 - 0.0 - - - - - - -
24/11:00am 27.7 S 8 12 1007.9 - 0.0 - - - - - - -
24/10:30am 27.3 S 10 14 1008.2 - 0.0 - - - - - - -
24/10:00am 27.0 S 9 13 1008.4 - 0.0 - - - - - - -
24/09:30am 26.8 SSE 10 14 1008.3 - 0.0 - - - - - - -
24/09:00am 26.6 S 9 14 1008.3 - 1.0 - - - - - - -
24/08:30am 26.4 SSE 9 14 1008.5 - 1.0 - - - - - - -
24/08:00am 26.2 SSE 7 10 1008.3 - 1.0 - - - - - - -
24/07:30am 26.1 SSE 7 11 1007.5 - 1.0 - - - - - - -
24/07:00am 25.7 SE 6 11 1007.1 - 1.0 - - - - - - -
24/06:30am 25.9 SE 5 8 1006.5 - 1.0 - - - - - - -
24/06:00am 26.1 SSE 7 11 1005.6 - 1.0 - - - - - - -
24/05:30am 26.2 SSE 9 13 1005.6 - 1.0 - - - - - - -
24/05:00am 26.2 S 8 11 1005.2 - 1.0 - - - - - - -
24/04:30am 26.1 S 7 10 1005.0 - 1.0 - - - - - - -
24/04:00am 26.2 S 9 13 1005.1 - 1.0 - - - - - - -
24/03:30am 26.4 S 7 9 1004.7 - 1.0 - - - - - - -
24/03:00am 26.2 S 5 8 1004.9 - 1.0 - - - - - - -
24/02:30am 26.6 S 7 10 1005.4 - 1.0 - - - - - - -
24/02:00am 26.2 SE 5 9 1006.0 - 1.0 - - - - - - -
24/01:30am 26.6 S 8 12 1006.5 - 1.0 - - - - - - -
24/01:00am 26.6 S 7 11 1006.4 - 1.0 - - - - - - -
24/12:30am 26.8 SSE 7 11 1006.8 - 1.0 - - - - - - -
24/12:00am 26.9 S 8 11 1007.2 - 1.0 - - - - - - -
 
Date/Time
CST
Temp

°C
Wind Pressure Rain
since 9am
mm
Weather Cloud Vis
km
Sea
Height
m
Swell
Dir
 
Speed
knots
Gust
knots
hPa Trend Height
m
Period
s
Dir
23/11:30pm 26.9 SSE 5 9 1007.7 - 1.0 - - - - - - -
23/11:00pm 26.9 SE 2 3 1008.2 - 1.0 - - - - - - -
23/10:30pm 26.9 ESE 2 3 1008.0 - 1.0 - - - - - - -
23/10:00pm 27.0 SE 4 6 1008.2 - 1.0 - - - - - - -
23/09:30pm 27.0 ESE 4 6 1008.2 - 1.0 - - - - - - -
23/09:00pm 26.8 SE 5 6 1007.9 - 1.0 - - - - - - -
23/08:30pm 26.8 SE 4 5 1007.2 - 1.0 - - - - - - -
23/08:00pm 27.1 SE 2 3 1006.4 - 1.0 - - - - - - -
23/07:30pm 27.2 E 3 4 1005.9 - 1.0 - - - - - - -
23/07:00pm 27.2 ESE 2 5 1006.0 - 1.0 - - - - - - -
23/06:30pm 27.5 E 5 8 1006.0 - 1.0 - - - - - - -
23/06:00pm 27.7 ESE 5 8 1005.6 - 1.0 Recent precip. - - - - - -
23/05:30pm 27.7 E 5 7 1005.4 - 1.0 - - - - - - -
23/05:00pm 28.3 E 9 13 1005.4 - 0.4 - - - - - - -
23/04:30pm 30.8 ENE 8 14 1004.9 - 0.0 - - - - - - -
23/04:00pm 31.0 E 7 12 1005.0 - 0.0 - - - - - - -
23/03:30pm 31.2 ENE 8 11 1004.6 - 0.0 - - - - - - -
23/03:00pm 31.3 ESE 7 10 1004.8 - 0.0 - - - - - - -
23/02:30pm 31.1 E 8 12 1005.5 - 0.0 - - - - - - -
23/02:00pm 31.0 NE 5 9 1006.0 - 0.0 - - - - - - -
23/01:30pm 30.7 E 9 11 1006.3 - 0.0 - - - - - - -
23/01:00pm 31.2 NE 6 11 1006.9 - 0.0 - - - - - - -
23/12:30pm 31.5 ENE 8 12 1007.2 - 0.0 - - - - - - -
23/12:00pm 30.9 ENE 8 13 1007.5 - 0.0 - - - - - - -
23/11:30am 30.6 E 7 11 1008.1 - 0.0 - - - - - - -
23/11:00am 29.6 ESE 7 13 1008.6 - 0.0 - - - - - - -
23/10:30am 29.5 ESE 8 12 1008.8 - 0.0 - - - - - - -
23/10:00am 29.1 SE 6 9 1009.2 - 0.0 - - - - - - -
23/09:30am 28.3 SE 6 8 1009.2 - 0.0 - - - - - - -
23/09:00am 28.1 SSE 7 13 1008.8 - 17.4 - - - - - - -
23/08:30am 27.4 SSE 8 10 1008.6 - 17.4 - - - - - - -
23/08:00am 27.3 SE 5 8 1008.5 - 17.4 - - - - - - -
23/07:30am 26.4 SSE 4 6 1007.8 - 17.4 - - - - - - -
23/07:00am 26.1 SSE 5 7 1007.7 - 17.4 - - - - - - -
23/06:30am 26.1 SE 4 6 1007.6 - 17.4 - - - - - - -
23/06:00am 25.7 ESE 2 4 1007.6 - 17.4 - - - - - - -
23/05:30am 25.6 ESE 3 4 1007.2 - 17.4 - - - - - - -
23/05:00am 25.7 SE 4 6 1007.1 - 17.4 - - - - - - -
23/04:30am 25.6 SE 5 8 1007.0 - 17.4 - - - - - - -
23/04:00am 25.4 SE 4 6 1007.6 - 17.4 - - - - - - -
23/03:30am 25.6 E 3 4 1007.8 - 17.4 - - - - - - -
23/03:00am 25.6 ESE 5 9 1008.1 - 17.4 - - - - - - -
23/02:30am 25.6 E 3 5 1008.0 - 17.4 - - - - - - -
23/02:00am 25.6 ESE 5 7 1008.0 - 17.4 - - - - - - -
23/01:30am 25.6 SE 6 8 1008.2 - 17.2 - - - - - - -
23/01:00am 25.6 SE 4 5 1008.9 - 17.2 - - - - - - -
23/12:30am 25.8 SE 4 7 1009.3 - 17.2 - - - - - - -
23/12:00am 25.8 ESE 6 10 1009.4 - 17.2 - - - - - - -
 
Date/Time
CST
Temp

°C
Wind Pressure Rain
since 9am
mm
Weather Cloud Vis
km
Sea
Height
m
Swell
Dir
 
Speed
knots
Gust
knots
hPa Trend Height
m
Period
s
Dir
22/11:30pm 25.8 SE 6 10 1009.4 - 17.2 - - - - - - -
22/11:00pm 25.9 SE 4 6 1010.2 - 17.2 - - - - - - -
22/10:30pm 25.9 E 7 10 1010.3 - 17.2 - - - - - - -
22/10:00pm 26.1 ESE 11 17 1010.1 - 17.2 - - - - - - -
22/09:30pm 25.3 ESE 11 17 1009.8 - 17.2 - - - - - - -
22/09:00pm 26.2 E 12 19 1009.2 - 17.0 Recent precip. - - - - - -
22/08:30pm 26.1 ENE 9 22 1008.7 - 13.4 - - - - - - -
22/08:00pm 27.4 ENE 9 15 1008.4 - 2.8 - - - - - - -
22/07:30pm 27.6 ESE 2 2 1008.5 - 0.4 - - - - - - -
22/07:00pm 27.3 S 4 6 1008.4 - 0.2 - - - - - - -
22/06:30pm 27.6 ESE 2 2 1007.9 - 0.2 - - - - - - -
22/06:00pm 27.6 ESE 2 3 1007.3 - 0.2 - - - - - - -
22/05:30pm 27.5 ESE 3 5 1006.8 - 0.2 - - - - - - -
22/05:00pm 26.5 SE 5 8 1006.8 - 0.2 - - - - - - -
22/04:30pm 28.5 SSE 13 18 1006.8 - 0.0 - - - - - - -
22/04:00pm 30.6 E 10 14 1006.4 - 0.0 - - - - - - -
22/03:30pm 31.6 E 10 13 1006.1 - 0.0 - - - - - - -
22/03:00pm 32.0 ESE 9 14 1006.4 - 0.0 - - - - - - -
22/02:30pm 32.3 E 10 16 1006.5 - 0.0 - - - - - - -
22/02:00pm 32.2 ESE 10 15 1006.9 - 0.0 - - - - - - -
22/01:30pm 31.0 E 9 15 1007.4 - 0.0 - - - - - - -
22/01:00pm 32.2 ESE 12 17 1007.9 - 0.0 - - - - - - -
22/12:30pm 31.2 ESE 12 19 1008.2 - 0.0 - - - - - - -
22/12:00pm 31.4 ESE 13 18 1008.7 - 0.0 - - - - - - -
22/11:30am 31.0 ESE 12 17 1009.5 - 0.0 - - - - - - -
22/11:00am 31.1 ESE 11 18 1010.1 - 0.0 - - - - - - -
22/10:30am 30.0 ESE 11 18 1010.5 - 0.0 - - - - - - -
22/10:00am 30.0 SE 9 15 1010.8 - 0.0 - - - - - - -
22/09:30am 29.6 ESE 9 14 1010.7 - 0.0 - - - - - - -
22/09:00am 29.4 SE 9 13 1010.8 - 0.2 - - - - - - -
22/08:30am 28.6 SE 8 11 1010.5 - 0.2 - - - - - - -
22/08:00am 27.6 SE 7 11 1010.4 - 0.2 - - - - - - -
22/07:30am 26.7 ESE 6 10 1010.2 - 0.2 - - - - - - -
22/07:00am 25.7 ESE 6 9 1010.1 - 0.2 - - - - - - -
22/06:30am 25.9 SE 7 10 1009.4 - 0.2 - - - - - - -
22/06:00am 25.7 SE 6 8 1009.0 - 0.2 - - - - - - -
22/05:30am 25.7 ESE 5 7 1008.8 - 0.2 - - - - - - -
22/05:00am 25.9 ESE 6 10 1008.8 - 0.2 - - - - - - -
22/04:30am 25.8 ESE 5 7 1008.7 - 0.2 - - - - - - -
22/04:00am 25.8 SE 4 7 1008.7 - 0.2 - - - - - - -
22/03:30am 26.1 ESE 6 9 1008.6 - 0.2 - - - - - - -
22/03:00am 26.1 SE 6 10 1008.6 - 0.2 - - - - - - -
22/02:30am 25.9 SE 5 6 1008.6 - 0.2 - - - - - - -
22/02:00am 25.8 SE 4 5 1008.9 - 0.2 - - - - - - -
22/01:30am 25.8 SE 4 5 1009.2 - 0.2 - - - - - - -
22/01:00am 26.1 ESE 3 4 1009.5 - 0.2 - - - - - - -
22/12:30am 26.4 ESE 4 6 1009.5 - 0.2 - - - - - - -

Other Formats:

Comma delimited format used in spreadsheet applications
http://www.bom.gov.au/fwo/IDD60701/IDD60701.94108.axf

JavaScript Object Notation format (JSON) in row-major order
http://www.bom.gov.au/fwo/IDD60701/IDD60701.94108.json